Time;durP1;ratioP1;P1;durP2;ratioP2;P2;SDS_P1;SDS_P2;PMS_P1;PMS_P2;Temp;Humidity;BMP_temperature;BMP_pressure;BME280_temperature;BME280_humidity;BME280_pressure;Samples;Min_cycle;Max_cycle;Signal;HPM_P1;HPM_P2
2022/05/14 00:00:13;;;;;;;19.53;17.30;;;;;;;;;;10509199;28;20388;-82
2022/05/14 00:05:15;;;;;;;19.13;17.00;;;;;;;;;;10509394;28;20521;-82
2022/05/14 00:10:21;;;;;;;18.97;16.50;;;;;;;;;;10510282;28;20469;-82
2022/05/14 00:15:23;;;;;;;17.88;16.05;;;;;;;;;;10509186;28;20426;-82
2022/05/14 00:20:25;;;;;;;18.10;15.70;;;;;;;;;;10509316;28;20840;-82
2022/05/14 00:25:28;;;;;;;18.65;16.50;;;;;;;;;;10503181;28;20430;-82
2022/05/14 00:30:32;;;;;;;17.92;16.13;;;;;;;;;;10508562;28;20408;-82
2022/05/14 00:35:35;;;;;;;18.42;16.42;;;;;;;;;;10508581;28;20448;-82
2022/05/14 00:40:41;;;;;;;20.13;16.97;;;;;;;;;;10507587;28;20408;-82
2022/05/14 00:45:59;;;;;;;19.63;17.63;;;;;;;;;;10508055;28;20817;-82
2022/05/14 00:51:02;;;;;;;20.73;17.80;;;;;;;;;;10508433;28;20487;-82
2022/05/14 00:56:08;;;;;;;21.10;17.37;;;;;;;;;;10508629;28;20880;-82
2022/05/14 01:01:10;;;;;;;19.10;17.10;;;;;;;;;;10507317;28;20429;-82
2022/05/14 01:06:15;;;;;;;19.25;17.17;;;;;;;;;;10508064;28;20522;-82
2022/05/14 01:11:19;;;;;;;18.17;16.27;;;;;;;;;;10508078;28;20416;-82
2022/05/14 01:16:21;;;;;;;19.55;17.50;;;;;;;;;;10507505;28;20400;-82
2022/05/14 01:21:29;;;;;;;19.98;17.55;;;;;;;;;;10507436;28;20479;-82
2022/05/14 01:26:35;;;;;;;19.27;17.20;;;;;;;;;;10505382;28;20403;-83
2022/05/14 01:31:39;;;;;;;19.67;16.30;;;;;;;;;;10511304;28;20414;-82
2022/05/14 01:36:41;;;;;;;19.63;16.42;;;;;;;;;;10505722;28;20496;-82
2022/05/14 01:41:45;;;;;;;18.77;16.83;;;;;;;;;;10502362;28;20403;-82
2022/05/14 01:46:47;;;;;;;17.13;15.27;;;;;;;;;;10505916;28;20908;-82
2022/05/14 01:51:49;;;;;;;20.27;16.38;;;;;;;;;;10501658;28;20420;-82
2022/05/14 01:56:52;;;;;;;19.37;16.20;;;;;;;;;;10507174;28;20494;-82
2022/05/14 02:01:54;;;;;;;19.23;16.63;;;;;;;;;;10500916;28;20497;-82
2022/05/14 02:06:56;;;;;;;19.13;16.95;;;;;;;;;;10485318;28;20908;-82
2022/05/14 02:12:01;;;;;;;19.70;16.20;;;;;;;;;;10523688;28;20904;-82
2022/05/14 02:17:03;;;;;;;18.70;16.25;;;;;;;;;;10527285;28;20396;-82
2022/05/14 02:22:05;;;;;;;19.73;16.92;;;;;;;;;;10513091;28;20485;-82
2022/05/14 02:27:08;;;;;;;17.53;15.63;;;;;;;;;;10524424;28;20436;-82
2022/05/14 02:32:10;;;;;;;17.15;15.32;;;;;;;;;;10525994;28;20430;-82
2022/05/14 02:37:12;;;;;;;16.50;14.80;;;;;;;;;;10525479;28;20901;-82
2022/05/14 02:42:15;;;;;;;17.03;14.33;;;;;;;;;;10494129;28;20402;-82
2022/05/14 02:47:17;;;;;;;17.85;15.02;;;;;;;;;;10483823;28;20478;-82
2022/05/14 02:52:19;;;;;;;17.23;14.57;;;;;;;;;;10498504;28;20674;-82
2022/05/14 02:57:22;;;;;;;16.03;14.20;;;;;;;;;;10524888;28;20898;-82
2022/05/14 03:02:23;;;;;;;17.17;15.30;;;;;;;;;;10525307;28;20396;-82
2022/05/14 03:07:25;;;;;;;17.75;15.32;;;;;;;;;;10523676;28;20832;-82
2022/05/14 03:12:28;;;;;;;17.10;15.30;;;;;;;;;;10524504;28;20412;-82
2022/05/14 03:17:34;;;;;;;16.85;15.05;;;;;;;;;;10520836;28;20401;-82
2022/05/14 03:22:37;;;;;;;19.90;16.10;;;;;;;;;;10520496;28;20771;-82
2022/05/14 03:27:40;;;;;;;18.67;16.65;;;;;;;;;;10524248;28;20408;-82
2022/05/14 03:32:42;;;;;;;21.13;17.15;;;;;;;;;;10524391;28;20429;-82
2022/05/14 03:37:43;;;;;;;18.50;16.50;;;;;;;;;;10522215;28;20404;-82
2022/05/14 03:42:47;;;;;;;21.17;18.43;;;;;;;;;;10488662;28;20456;-82
2022/05/14 03:47:49;;;;;;;22.15;17.85;;;;;;;;;;10482344;28;20476;-82
2022/05/14 03:52:51;;;;;;;20.35;17.83;;;;;;;;;;10486808;28;20414;-82
2022/05/14 03:57:54;;;;;;;23.00;19.30;;;;;;;;;;10524037;28;20392;-82
2022/05/14 04:02:56;;;;;;;20.05;17.65;;;;;;;;;;10523503;28;20400;-81
2022/05/14 04:07:58;;;;;;;21.65;18.02;;;;;;;;;;10501700;28;20501;-82
2022/05/14 04:13:01;;;;;;;22.17;17.07;;;;;;;;;;10501228;28;20412;-82
2022/05/14 04:18:03;;;;;;;18.90;16.27;;;;;;;;;;10501272;28;20400;-82
2022/05/14 04:23:07;;;;;;;17.55;15.30;;;;;;;;;;10497264;28;20416;-82
2022/05/14 04:28:10;;;;;;;16.98;15.15;;;;;;;;;;10497986;28;20502;-82
2022/05/14 04:33:12;;;;;;;18.67;15.48;;;;;;;;;;10508583;28;20516;-81
2022/05/14 04:38:14;;;;;;;18.02;15.00;;;;;;;;;;10504164;28;20402;-81
2022/05/14 04:43:17;;;;;;;17.50;14.83;;;;;;;;;;10506775;28;20412;-82
2022/05/14 04:48:20;;;;;;;16.27;14.57;;;;;;;;;;10507895;28;20404;-81
2022/05/14 04:53:22;;;;;;;17.30;14.07;;;;;;;;;;10499030;28;20429;-81
2022/05/14 04:58:25;;;;;;;14.70;12.77;;;;;;;;;;10512259;28;20447;-81
2022/05/14 05:03:28;;;;;;;16.75;13.00;;;;;;;;;;10509414;28;20479;-81
2022/05/14 05:08:32;;;;;;;15.90;13.30;;;;;;;;;;10500719;28;20495;-82
2022/05/14 05:13:35;;;;;;;14.60;12.90;;;;;;;;;;10518191;28;20539;-80
2022/05/14 05:18:38;;;;;;;14.02;12.23;;;;;;;;;;10515810;28;20459;-82
2022/05/14 05:23:39;;;;;;;15.20;12.27;;;;;;;;;;10506248;28;20412;-80
2022/05/14 05:28:43;;;;;;;13.52;12.13;;;;;;;;;;10518984;28;20905;-81
2022/05/14 05:33:45;;;;;;;14.60;11.60;;;;;;;;;;10516772;28;20780;-82
2022/05/14 05:38:46;;;;;;;13.60;11.37;;;;;;;;;;10515052;28;20426;-81
2022/05/14 05:43:49;;;;;;;15.45;12.15;;;;;;;;;;10514375;28;20411;-80
2022/05/14 05:48:51;;;;;;;14.45;11.93;;;;;;;;;;10510780;28;20511;-81
2022/05/14 05:59:15;;;;;;;13.83;10.93;;;;;;;;;;10503784;28;20628;-81
2022/05/14 06:04:17;;;;;;;13.05;11.15;;;;;;;;;;10503092;28;20499;-81
2022/05/14 06:09:21;;;;;;;13.20;11.90;;;;;;;;;;10504683;28;20497;-81
2022/05/14 06:14:25;;;;;;;12.85;11.30;;;;;;;;;;10505403;28;20888;-81
2022/05/14 06:19:27;;;;;;;14.00;11.60;;;;;;;;;;10499585;28;20402;-81
2022/05/14 06:24:29;;;;;;;12.05;10.85;;;;;;;;;;10497559;28;20485;-81
2022/05/14 06:29:33;;;;;;;12.35;10.82;;;;;;;;;;10505969;28;20435;-81
2022/05/14 06:34:34;;;;;;;12.10;10.90;;;;;;;;;;10501147;28;20421;-81
2022/05/14 06:39:36;;;;;;;13.23;9.93;;;;;;;;;;10504963;28;20398;-80
2022/05/14 06:44:40;;;;;;;10.30;9.23;;;;;;;;;;10504718;28;20487;-80
2022/05/14 06:49:41;;;;;;;11.27;9.15;;;;;;;;;;10499291;28;20392;-81
2022/05/14 06:54:46;;;;;;;11.85;8.95;;;;;;;;;;10503550;28;20426;-79
2022/05/14 06:59:49;;;;;;;10.27;7.90;;;;;;;;;;10504463;28;20479;-80
2022/05/14 07:10:10;;;;;;;9.10;8.10;;;;;;;;;;10501246;28;20397;-82
2022/05/14 07:15:13;;;;;;;8.85;7.10;;;;;;;;;;10500648;28;20427;-82
2022/05/14 07:20:15;;;;;;;9.63;7.13;;;;;;;;;;10500047;28;20496;-82
2022/05/14 07:25:17;;;;;;;7.67;6.87;;;;;;;;;;10494159;28;20400;-83
2022/05/14 07:30:21;;;;;;;9.00;6.80;;;;;;;;;;10497951;28;20436;-83
2022/05/14 07:35:23;;;;;;;8.38;6.82;;;;;;;;;;10496624;28;20429;-81
2022/05/14 07:40:29;;;;;;;7.30;6.60;;;;;;;;;;10522435;22;20424;-83
2022/05/14 07:45:35;;;;;;;6.43;5.60;;;;;;;;;;10520212;28;20408;-83
2022/05/14 07:50:37;;;;;;;5.97;5.28;;;;;;;;;;10519297;28;20764;-82
2022/05/14 07:55:39;;;;;;;7.30;6.00;;;;;;;;;;10517224;28;20430;-82
2022/05/14 08:00:43;;;;;;;6.70;5.85;;;;;;;;;;10521413;28;20424;-81
2022/05/14 08:05:45;;;;;;;7.93;6.43;;;;;;;;;;10523989;28;20404;-83
2022/05/14 08:10:48;;;;;;;8.85;5.95;;;;;;;;;;10525798;28;20407;-81
2022/05/14 08:15:53;;;;;;;6.95;6.20;;;;;;;;;;10529145;28;20946;-82
2022/05/14 08:20:55;;;;;;;7.00;6.32;;;;;;;;;;10528252;28;20396;-83
2022/05/14 08:25:57;;;;;;;7.20;6.50;;;;;;;;;;10525814;28;20400;-82
2022/05/14 08:31:01;;;;;;;7.15;6.45;;;;;;;;;;10528355;28;20392;-82
2022/05/14 08:36:03;;;;;;;7.70;6.15;;;;;;;;;;10525519;28;20414;-82
2022/05/14 08:41:05;;;;;;;7.50;6.32;;;;;;;;;;10521545;28;20483;-82
2022/05/14 08:46:09;;;;;;;6.90;6.20;;;;;;;;;;10528029;28;20477;-83
2022/05/14 08:51:15;;;;;;;8.90;6.23;;;;;;;;;;10526849;28;20475;-81
2022/05/14 08:56:29;;;;;;;10.27;6.03;;;;;;;;;;10524051;28;20429;-84
2022/05/14 09:01:36;;;;;;;6.47;5.75;;;;;;;;;;10525585;28;20400;-83
2022/05/14 09:06:39;;;;;;;7.50;5.95;;;;;;;;;;10524404;28;20404;-82
2022/05/14 09:11:43;;;;;;;5.93;5.28;;;;;;;;;;10525036;28;20431;-83
2022/05/14 09:16:50;;;;;;;6.13;5.47;;;;;;;;;;10527855;28;20427;-84
2022/05/14 09:21:56;;;;;;;7.70;5.43;;;;;;;;;;10529351;28;20428;-84
2022/05/14 09:27:11;;;;;;;6.73;5.43;;;;;;;;;;10521317;28;20479;-85
2022/05/14 09:32:30;;;;;;;6.68;5.25;;;;;;;;;;10517503;28;20414;-82
2022/05/14 09:37:32;;;;;;;7.43;4.95;;;;;;;;;;10511628;28;20425;-82
2022/05/14 09:42:39;;;;;;;6.03;5.15;;;;;;;;;;10525825;28;20405;-82
2022/05/14 09:47:43;;;;;;;6.05;5.10;;;;;;;;;;10519482;28;20407;-81
2022/05/14 09:52:56;;;;;;;6.22;5.10;;;;;;;;;;10519771;28;20406;-80
2022/05/14 09:58:01;;;;;;;7.55;5.07;;;;;;;;;;10519370;28;20404;-82
2022/05/14 10:03:26;;;;;;;6.45;5.63;;;;;;;;;;10505710;28;20392;-82
2022/05/14 10:08:47;;;;;;;7.10;5.70;;;;;;;;;;10515155;28;21622;-83
2022/05/14 10:14:00;;;;;;;7.28;6.10;;;;;;;;;;10522232;28;20423;-82
2022/05/14 10:19:20;;;;;;;6.05;5.43;;;;;;;;;;10524729;28;20868;-83
2022/05/14 10:30:07;;;;;;;7.30;5.40;;;;;;;;;;10484891;28;21127;-83
2022/05/14 10:35:18;;;;;;;6.70;5.63;;;;;;;;;;10519684;28;20416;-83
2022/05/14 10:40:25;;;;;;;5.40;4.57;;;;;;;;;;10522290;28;20548;-82
2022/05/14 10:45:32;;;;;;;7.77;5.30;;;;;;;;;;10525165;28;20410;-83
2022/05/14 10:50:36;;;;;;;5.93;5.03;;;;;;;;;;10524171;28;20764;-85
2022/05/14 10:55:50;;;;;;;7.95;5.18;;;;;;;;;;10518822;28;20427;-84
2022/05/14 11:00:52;;;;;;;5.47;4.97;;;;;;;;;;10522245;28;20400;-84
2022/05/14 11:06:10;;;;;;;6.57;5.57;;;;;;;;;;10517079;28;20426;-85
2022/05/14 11:11:16;;;;;;;5.70;4.93;;;;;;;;;;10509493;28;20924;-87
2022/05/14 11:16:18;;;;;;;5.22;4.80;;;;;;;;;;10508354;28;20452;-86
2022/05/14 11:21:35;;;;;;;9.77;5.07;;;;;;;;;;10502260;28;20519;-86
2022/05/14 11:26:49;;;;;;;6.38;5.25;;;;;;;;;;10496548;28;20414;-85
2022/05/14 11:31:55;;;;;;;6.38;5.10;;;;;;;;;;10516652;28;20405;-84
2022/05/14 11:37:01;;;;;;;5.88;5.15;;;;;;;;;;10510212;28;20452;-84
2022/05/14 11:42:29;;;;;;;6.63;5.00;;;;;;;;;;10513753;28;20510;-84
2022/05/14 11:47:48;;;;;;;6.35;4.63;;;;;;;;;;10519354;28;20772;-84
2022/05/14 11:53:01;;;;;;;8.23;4.90;;;;;;;;;;10502733;28;21790;-85
2022/05/14 11:58:08;;;;;;;6.70;5.03;;;;;;;;;;10501869;28;20994;-85
2022/05/14 12:03:15;;;;;;;5.68;4.80;;;;;;;;;;10500754;28;20504;-84
2022/05/14 12:08:58;;;;;;;5.50;5.00;;;;;;;;;;10502678;28;20419;-84
2022/05/14 12:14:07;;;;;;;6.03;5.20;;;;;;;;;;10483785;28;20513;-86
2022/05/14 12:19:16;;;;;;;6.30;5.63;;;;;;;;;;10492251;28;20427;-82
2022/05/14 12:24:19;;;;;;;6.68;5.90;;;;;;;;;;10494576;28;20780;-83
2022/05/14 12:29:25;;;;;;;6.70;5.50;;;;;;;;;;10500488;28;20400;-82
2022/05/14 12:34:34;;;;;;;7.32;6.05;;;;;;;;;;10502736;28;20424;-84
2022/05/14 12:39:36;;;;;;;8.85;6.05;;;;;;;;;;10508025;28;20417;-83
2022/05/14 12:44:44;;;;;;;7.28;6.00;;;;;;;;;;10503269;28;20874;-87
2022/05/14 12:49:47;;;;;;;8.33;5.90;;;;;;;;;;10495970;28;20444;-82
2022/05/14 12:54:51;;;;;;;6.85;6.00;;;;;;;;;;10509289;28;20420;-84
2022/05/14 12:59:56;;;;;;;7.15;6.07;;;;;;;;;;10511094;28;20440;-82
2022/05/14 13:05:04;;;;;;;5.80;5.30;;;;;;;;;;10528428;28;20955;-83
2022/05/14 13:10:09;;;;;;;6.65;5.60;;;;;;;;;;10521958;28;20416;-83
2022/05/14 13:15:12;;;;;;;5.73;5.13;;;;;;;;;;10518136;28;20504;-83
2022/05/14 13:20:20;;;;;;;6.43;5.47;;;;;;;;;;10518416;28;20493;-84
2022/05/14 13:25:31;;;;;;;7.87;5.33;;;;;;;;;;10524558;28;20450;-84
2022/05/14 13:30:36;;;;;;;8.43;5.80;;;;;;;;;;10519221;28;20465;-82
2022/05/14 13:40:59;;;;;;;7.65;5.28;;;;;;;;;;10515435;28;20416;-82
2022/05/14 13:46:06;;;;;;;5.68;4.80;;;;;;;;;;10524310;28;20495;-84
2022/05/14 13:51:09;;;;;;;5.72;4.68;;;;;;;;;;10514011;28;20437;-83
2022/05/14 13:56:13;;;;;;;5.73;5.13;;;;;;;;;;10510146;28;20413;-84
2022/05/14 14:01:34;;;;;;;6.33;4.67;;;;;;;;;;10517792;28;20400;-84
2022/05/14 14:06:37;;;;;;;7.50;4.90;;;;;;;;;;10508360;28;20398;-84
2022/05/14 14:11:41;;;;;;;5.30;4.80;;;;;;;;;;10491105;28;20416;-83
2022/05/14 14:16:44;;;;;;;5.63;4.75;;;;;;;;;;10491492;28;20455;-83
2022/05/14 14:21:47;;;;;;;6.90;4.95;;;;;;;;;;10499475;28;20406;-83
2022/05/14 14:26:51;;;;;;;5.88;4.63;;;;;;;;;;10503555;28;20404;-82
2022/05/14 14:31:54;;;;;;;5.07;3.50;;;;;;;;;;10509614;28;20891;-83
2022/05/14 14:36:56;;;;;;;5.57;4.10;;;;;;;;;;10505414;28;20444;-84
2022/05/14 14:41:58;;;;;;;5.68;4.30;;;;;;;;;;10489413;28;20409;-82
2022/05/14 14:47:01;;;;;;;4.97;4.47;;;;;;;;;;10487512;28;20889;-83
2022/05/14 14:52:03;;;;;;;5.60;4.78;;;;;;;;;;10491032;28;20489;-83
2022/05/14 14:57:06;;;;;;;5.80;4.55;;;;;;;;;;10497946;28;20420;-83
2022/05/14 15:02:15;;;;;;;6.97;4.90;;;;;;;;;;10493970;28;20403;-83
2022/05/14 15:07:20;;;;;;;5.80;4.60;;;;;;;;;;10493270;28;20403;-83
2022/05/14 15:12:22;;;;;;;7.37;5.17;;;;;;;;;;10499053;28;20912;-82
2022/05/14 15:17:27;;;;;;;6.03;4.82;;;;;;;;;;10496212;28;20523;-82
2022/05/14 15:22:29;;;;;;;5.20;3.97;;;;;;;;;;10498913;28;20406;-83
2022/05/14 15:27:31;;;;;;;6.68;4.68;;;;;;;;;;10499355;28;20404;-85
2022/05/14 15:32:34;;;;;;;6.07;4.77;;;;;;;;;;10496864;28;20400;-87
2022/05/14 15:37:36;;;;;;;8.60;5.13;;;;;;;;;;10495028;28;20429;-84
2022/05/14 15:42:42;;;;;;;8.20;5.00;;;;;;;;;;10494317;28;20412;-83
2022/05/14 15:47:48;;;;;;;5.33;4.77;;;;;;;;;;10518471;28;20411;-81
2022/05/14 15:52:50;;;;;;;7.40;4.87;;;;;;;;;;10520620;28;20401;-84
2022/05/14 15:57:52;;;;;;;4.75;4.20;;;;;;;;;;10522367;28;20432;-82
2022/05/14 16:02:58;;;;;;;7.05;5.00;;;;;;;;;;10522703;28;20395;-82
2022/05/14 16:08:00;;;;;;;4.93;4.27;;;;;;;;;;10513365;28;20852;-82
2022/05/14 16:18:26;;;;;;;5.03;4.20;;;;;;;;;;10517944;28;20404;-89
2022/05/14 16:23:28;;;;;;;4.75;4.20;;;;;;;;;;10519424;28;20499;-81
2022/05/14 16:28:31;;;;;;;7.25;4.57;;;;;;;;;;10527706;28;20396;-82
2022/05/14 16:33:34;;;;;;;4.93;4.15;;;;;;;;;;10513933;28;20877;-82
2022/05/14 16:38:36;;;;;;;7.28;4.50;;;;;;;;;;10507043;28;20432;-83
2022/05/14 16:43:39;;;;;;;7.67;4.50;;;;;;;;;;10520717;28;20767;-82
2022/05/14 16:48:45;;;;;;;6.73;4.80;;;;;;;;;;10524567;28;20447;-82
2022/05/14 16:53:46;;;;;;;16.08;5.47;;;;;;;;;;10522172;28;20416;-82
2022/05/14 16:58:48;;;;;;;6.82;4.97;;;;;;;;;;10527011;28;20522;-81
2022/05/14 17:03:51;;;;;;;7.97;5.75;;;;;;;;;;10505896;28;21339;-82
2022/05/14 17:08:53;;;;;;;7.10;5.85;;;;;;;;;;10520038;28;20423;-83
2022/05/14 17:13:55;;;;;;;7.43;5.68;;;;;;;;;;10524492;28;20412;-84
2022/05/14 17:19:00;;;;;;;6.88;5.72;;;;;;;;;;10523757;28;20477;-84
2022/05/14 17:24:02;;;;;;;7.50;6.10;;;;;;;;;;10515472;28;21131;-84
2022/05/14 17:29:04;;;;;;;7.57;6.30;;;;;;;;;;10525656;28;20487;-89
2022/05/14 17:34:08;;;;;;;10.07;6.90;;;;;;;;;;10523509;28;20410;-90
2022/05/14 17:44:32;;;;;;;9.73;8.25;;;;;;;;;;10521014;28;20901;-90
2022/05/14 17:49:36;;;;;;;10.27;7.53;;;;;;;;;;10522751;28;20419;-90
2022/05/14 17:54:38;;;;;;;9.88;8.68;;;;;;;;;;10519750;28;20412;-90
2022/05/14 17:59:41;;;;;;;11.27;9.10;;;;;;;;;;10523444;28;20415;-84
2022/05/14 18:04:44;;;;;;;9.98;8.98;;;;;;;;;;10519548;28;20408;-83
2022/05/14 18:09:46;;;;;;;10.43;9.33;;;;;;;;;;10516872;28;20404;-83
2022/05/14 18:14:48;;;;;;;11.32;10.15;;;;;;;;;;10520376;28;20904;-82
2022/05/14 18:19:54;;;;;;;13.48;9.90;;;;;;;;;;10522631;28;20404;-83
2022/05/14 18:24:55;;;;;;;10.38;8.48;;;;;;;;;;10512944;28;20442;-81
2022/05/14 18:30:00;;;;;;;10.65;8.93;;;;;;;;;;10515418;28;20417;-83
2022/05/14 18:35:05;;;;;;;10.70;9.05;;;;;;;;;;10519075;28;20930;-81
2022/05/14 18:40:11;;;;;;;11.90;9.50;;;;;;;;;;10505796;28;20408;-82
2022/05/14 18:45:14;;;;;;;11.85;9.82;;;;;;;;;;10519563;28;20503;-82
2022/05/14 18:50:19;;;;;;;11.30;10.03;;;;;;;;;;10518417;28;20892;-82
2022/05/14 18:55:20;;;;;;;11.07;9.88;;;;;;;;;;10515007;28;20415;-83
2022/05/14 19:00:25;;;;;;;11.63;9.70;;;;;;;;;;10521298;28;20994;-83
2022/05/14 19:10:49;;;;;;;11.63;10.45;;;;;;;;;;10514323;28;20951;-81
2022/05/14 19:15:52;;;;;;;13.83;10.50;;;;;;;;;;10520572;28;20409;-84
2022/05/14 19:20:57;;;;;;;12.25;10.07;;;;;;;;;;10519182;28;20498;-84
2022/05/14 19:25:59;;;;;;;10.88;9.77;;;;;;;;;;10510900;28;20497;-84
2022/05/14 19:31:05;;;;;;;10.23;9.13;;;;;;;;;;10518165;28;20435;-85
2022/05/14 19:36:09;;;;;;;14.70;9.85;;;;;;;;;;10517090;28;20404;-83
2022/05/14 19:41:14;;;;;;;13.53;9.17;;;;;;;;;;10485738;22;20414;-81
2022/05/14 19:46:17;;;;;;;10.23;8.70;;;;;;;;;;10468462;28;20418;-82
2022/05/14 19:51:21;;;;;;;11.55;8.82;;;;;;;;;;10483561;28;20500;-81
2022/05/14 19:56:23;;;;;;;9.38;8.27;;;;;;;;;;10477360;28;20408;-81
2022/05/14 20:01:26;;;;;;;9.88;8.32;;;;;;;;;;10461175;28;20403;-80
2022/05/14 20:06:29;;;;;;;10.25;8.30;;;;;;;;;;10492381;28;20463;-82
2022/05/14 20:11:32;;;;;;;10.57;7.93;;;;;;;;;;10495711;28;20420;-81
2022/05/14 20:21:55;;;;;;;10.63;7.97;;;;;;;;;;10491070;28;20480;-81
2022/05/14 20:26:57;;;;;;;9.40;7.88;;;;;;;;;;10494842;28;20437;-80
2022/05/14 20:31:59;;;;;;;8.60;7.80;;;;;;;;;;10494640;28;20408;-79
2022/05/14 20:37:02;;;;;;;11.83;8.63;;;;;;;;;;10496308;28;20848;-82
2022/05/14 20:42:05;;;;;;;11.27;9.70;;;;;;;;;;10493530;28;20409;-81
2022/05/14 20:47:07;;;;;;;11.82;9.95;;;;;;;;;;10496507;28;20413;-81
2022/05/14 20:52:10;;;;;;;12.70;10.80;;;;;;;;;;10493507;28;20406;-80
2022/05/14 20:57:12;;;;;;;12.77;11.43;;;;;;;;;;10483536;28;20645;-81
2022/05/14 21:02:14;;;;;;;13.15;11.40;;;;;;;;;;10493869;28;20497;-80
2022/05/14 21:07:17;;;;;;;12.75;11.40;;;;;;;;;;10495642;28;20416;-80
2022/05/14 21:12:19;;;;;;;14.07;11.23;;;;;;;;;;10492328;28;20501;-81
2022/05/14 21:17:21;;;;;;;14.05;11.38;;;;;;;;;;10480220;28;20459;-79
2022/05/14 21:22:24;;;;;;;13.07;10.70;;;;;;;;;;10493187;28;20439;-81
2022/05/14 21:27:26;;;;;;;11.20;10.05;;;;;;;;;;10493632;28;20412;-80
2022/05/14 21:32:29;;;;;;;11.63;10.20;;;;;;;;;;10492051;28;20406;-80
2022/05/14 21:37:39;;;;;;;12.00;9.95;;;;;;;;;;10494337;28;20464;-81
2022/05/14 21:42:46;;;;;;;11.23;9.88;;;;;;;;;;10494176;28;20417;-81
2022/05/14 21:47:47;;;;;;;11.37;9.50;;;;;;;;;;10479318;28;20433;-81
2022/05/14 21:52:52;;;;;;;13.50;9.33;;;;;;;;;;10487354;28;20765;-81
2022/05/14 21:57:54;;;;;;;11.30;9.67;;;;;;;;;;10480510;28;20420;-81
2022/05/14 22:02:58;;;;;;;10.63;9.43;;;;;;;;;;10490022;28;20392;-80
2022/05/14 22:08:03;;;;;;;12.38;10.40;;;;;;;;;;10492133;28;20398;-81
2022/05/14 22:13:06;;;;;;;14.23;10.40;;;;;;;;;;10486639;28;20810;-82
2022/05/14 22:18:11;;;;;;;12.07;9.30;;;;;;;;;;10500826;28;20417;-81
2022/05/14 22:23:15;;;;;;;11.77;9.23;;;;;;;;;;10480825;28;20432;-80
2022/05/14 22:28:17;;;;;;;11.87;9.50;;;;;;;;;;10492729;28;20433;-81
2022/05/14 22:33:19;;;;;;;10.13;9.13;;;;;;;;;;10495797;28;20394;-81
2022/05/14 22:38:22;;;;;;;10.13;9.13;;;;;;;;;;10492535;28;20909;-80
2022/05/14 22:43:26;;;;;;;10.18;9.10;;;;;;;;;;10496554;28;20409;-80
2022/05/14 22:48:30;;;;;;;11.17;10.07;;;;;;;;;;10487383;28;20433;-80
2022/05/14 22:53:33;;;;;;;10.77;9.68;;;;;;;;;;10479826;28;20414;-80
2022/05/14 22:58:36;;;;;;;10.85;9.73;;;;;;;;;;10492532;28;20785;-82
2022/05/14 23:03:38;;;;;;;12.77;9.75;;;;;;;;;;10500517;28;20422;-81
2022/05/14 23:08:42;;;;;;;11.32;9.57;;;;;;;;;;10492594;28;20422;-80
2022/05/14 23:13:44;;;;;;;11.07;9.60;;;;;;;;;;10498553;28;20463;-81
2022/05/14 23:18:45;;;;;;;11.53;9.73;;;;;;;;;;10494376;28;20421;-81
2022/05/14 23:23:50;;;;;;;11.10;9.90;;;;;;;;;;10501796;28;20515;-81
2022/05/14 23:28:52;;;;;;;11.43;9.85;;;;;;;;;;10495811;28;20412;-80
2022/05/14 23:33:54;;;;;;;12.43;10.10;;;;;;;;;;10497718;28;20390;-81
2022/05/14 23:38:59;;;;;;;12.60;11.05;;;;;;;;;;10482003;28;20422;-80
2022/05/14 23:44:01;;;;;;;11.77;10.40;;;;;;;;;;10476048;28;20399;-82
2022/05/14 23:49:03;;;;;;;12.27;10.13;;;;;;;;;;10469385;28;20468;-81
2022/05/14 23:54:07;;;;;;;12.07;10.75;;;;;;;;;;10496535;28;20404;-81
